Time;durP1;ratioP1;P1;durP2;ratioP2;P2;SDS_P1;SDS_P2;PMS_P1;PMS_P2;Temp;Humidity;BMP_temperature;BMP_pressure;BME280_temperature;BME280_humidity;BME280_pressure;Samples;Min_cycle;Max_cycle;Signal;HPM_P1;HPM_P2
2021/08/19 00:00:18;;;;;;;2.28;1.40;;;;;;;18.97;67.48;100068.94;10323407;28;20436;-61
2021/08/19 00:05:19;;;;;;;2.65;1.70;;;;;;;19.05;67.56;100074.28;10328399;28;20127;-61
2021/08/19 00:10:21;;;;;;;1.48;1.25;;;;;;;19.10;67.32;100078.31;10330971;28;20183;-63
2021/08/19 00:15:23;;;;;;;3.33;1.17;;;;;;;19.07;67.35;100069.53;10319961;28;20478;-58
2021/08/19 00:20:24;;;;;;;2.42;1.48;;;;;;;19.13;67.21;100073.38;10326332;28;20046;-61
2021/08/19 00:25:26;;;;;;;2.50;1.45;;;;;;;19.06;67.19;100073.25;10324759;28;20096;-58
2021/08/19 00:30:27;;;;;;;4.05;1.55;;;;;;;18.98;67.96;100076.03;10325117;28;20046;-58
2021/08/19 00:35:28;;;;;;;2.42;1.20;;;;;;;18.94;68.17;100069.31;10334661;28;20099;-60
2021/08/19 00:40:30;;;;;;;1.17;1.08;;;;;;;18.87;67.97;100062.97;10336923;28;20066;-61
2021/08/19 00:45:34;;;;;;;1.98;0.90;;;;;;;18.82;67.99;100054.56;10332297;28;20484;-60
2021/08/19 00:50:37;;;;;;;1.55;1.20;;;;;;;18.88;67.74;100043.09;10332452;28;20658;-60
2021/08/19 00:55:40;;;;;;;2.50;1.27;;;;;;;18.84;68.27;100037.19;10334425;28;20077;-60
2021/08/19 01:00:44;;;;;;;2.70;1.57;;;;;;;18.76;68.64;100031.03;10328613;28;20101;-60
2021/08/19 01:05:45;;;;;;;1.90;1.20;;;;;;;18.85;68.60;100038.03;10326983;28;20041;-58
2021/08/19 01:10:47;;;;;;;1.92;1.30;;;;;;;18.81;68.86;100036.72;10328417;28;20107;-60
2021/08/19 01:15:48;;;;;;;2.00;1.20;;;;;;;18.84;68.99;100028.25;10331397;28;20065;-61
2021/08/19 01:20:50;;;;;;;2.03;1.10;;;;;;;18.92;68.92;100028.22;10332841;28;20137;-61
2021/08/19 01:25:51;;;;;;;1.65;0.98;;;;;;;18.94;68.49;100031.56;10327323;28;20648;-59
2021/08/19 01:30:52;;;;;;;1.60;0.95;;;;;;;18.73;68.88;100041.19;10327793;28;20049;-60
2021/08/19 01:35:54;;;;;;;1.40;1.30;;;;;;;18.70;69.46;100032.59;10345233;28;20055;-60
2021/08/19 01:40:56;;;;;;;1.65;1.10;;;;;;;18.60;69.40;100035.56;10339674;28;20442;-60
2021/08/19 01:45:58;;;;;;;0.85;0.75;;;;;;;18.62;69.54;100041.59;10336603;28;20761;-59
2021/08/19 01:51:00;;;;;;;2.28;1.73;;;;;;;18.53;69.88;100031.91;10327587;28;20050;-60
2021/08/19 01:56:02;;;;;;;1.90;1.30;;;;;;;18.57;69.89;100026.97;10329882;28;20074;-61
2021/08/19 02:01:03;;;;;;;1.98;1.30;;;;;;;18.56;69.92;100018.06;10333685;28;20171;-58
2021/08/19 02:06:05;;;;;;;1.75;1.30;;;;;;;18.57;69.97;100018.91;10334636;28;20459;-61
2021/08/19 02:11:06;;;;;;;1.17;0.90;;;;;;;18.52;70.38;100017.56;10320588;28;20685;-58
2021/08/19 02:16:08;;;;;;;1.92;1.65;;;;;;;18.52;70.55;100030.22;10323138;28;20132;-60
2021/08/19 02:21:10;;;;;;;1.63;1.52;;;;;;;18.50;70.50;100029.56;10328868;28;20056;-58
2021/08/19 02:26:11;;;;;;;1.77;1.52;;;;;;;18.53;70.40;100015.72;10329503;28;20053;-59
2021/08/19 02:31:12;;;;;;;1.35;1.17;;;;;;;18.54;70.53;100015.56;10343133;28;20070;-61
2021/08/19 02:36:14;;;;;;;5.03;4.63;;;;;;;18.52;70.83;100022.13;10333152;28;20060;-60
2021/08/19 02:41:15;;;;;;;1.45;1.35;;;;;;;18.47;71.21;100011.06;10322969;28;20050;-59
2021/08/19 02:46:17;;;;;;;1.60;1.30;;;;;;;18.45;71.19;100016.66;10331066;28;20100;-60
2021/08/19 02:51:18;;;;;;;3.83;3.63;;;;;;;18.42;71.42;100013.44;10327304;28;20076;-60
2021/08/19 02:56:20;;;;;;;2.88;1.50;;;;;;;18.42;71.78;100017.00;10327405;28;20147;-59
2021/08/19 03:01:21;;;;;;;3.88;3.58;;;;;;;18.33;71.97;100018.91;10325189;28;20120;-59
2021/08/19 03:06:23;;;;;;;2.25;2.05;;;;;;;18.37;72.01;100022.94;10330648;28;20050;-60
2021/08/19 03:11:24;;;;;;;3.35;3.05;;;;;;;18.37;72.35;100028.31;10320793;28;20492;-59
2021/08/19 03:16:26;;;;;;;6.97;3.38;;;;;;;18.27;72.33;100025.03;10324150;28;20105;-61
2021/08/19 03:21:27;;;;;;;2.63;1.77;;;;;;;18.17;73.58;100037.88;10331427;28;20046;-58
2021/08/19 03:26:31;;;;;;;5.30;4.97;;;;;;;18.15;73.63;100026.44;10322872;28;20431;-59
2021/08/19 03:31:33;;;;;;;2.03;1.83;;;;;;;18.19;73.41;100023.25;10323620;28;20042;-61
2021/08/19 03:36:34;;;;;;;2.38;2.03;;;;;;;18.20;73.45;100021.38;10322930;28;20046;-60
2021/08/19 03:41:36;;;;;;;2.30;2.10;;;;;;;18.19;73.67;100019.69;10319555;28;20084;-59
2021/08/19 03:46:37;;;;;;;2.97;1.85;;;;;;;18.25;73.56;100026.22;10318668;28;20526;-61
2021/08/19 03:51:39;;;;;;;4.05;3.75;;;;;;;18.22;73.84;100026.56;10324318;28;20188;-59
2021/08/19 03:56:40;;;;;;;2.08;1.50;;;;;;;18.25;73.82;100027.03;10319063;28;20057;-61
2021/08/19 04:01:42;;;;;;;1.48;1.38;;;;;;;18.19;73.80;100033.16;10321374;28;20458;-58
2021/08/19 04:06:44;;;;;;;2.25;2.05;;;;;;;18.04;74.56;100045.72;10327808;28;20066;-59
2021/08/19 04:11:45;;;;;;;2.38;2.17;;;;;;;17.92;75.55;100037.19;10344937;28;20066;-58
2021/08/19 04:16:46;;;;;;;3.05;1.88;;;;;;;17.95;75.69;100037.66;10334833;28;20541;-60
2021/08/19 04:21:48;;;;;;;2.38;1.90;;;;;;;17.84;76.28;100021.91;10327585;28;20054;-61
2021/08/19 04:26:49;;;;;;;2.80;2.60;;;;;;;17.76;76.77;100019.22;10327595;28;20674;-60
2021/08/19 04:31:51;;;;;;;3.00;2.72;;;;;;;17.94;76.98;100029.75;10342090;28;20108;-60
2021/08/19 04:36:52;;;;;;;2.80;2.15;;;;;;;17.96;77.02;100020.50;10331413;28;20133;-59
2021/08/19 04:41:53;;;;;;;3.15;2.75;;;;;;;17.91;77.28;100036.38;10330155;28;20065;-60
2021/08/19 04:46:55;;;;;;;4.20;2.90;;;;;;;17.92;77.68;100032.63;10330421;28;20550;-59
2021/08/19 04:51:56;;;;;;;2.78;2.58;;;;;;;17.94;77.65;100025.25;10339949;28;20497;-60
2021/08/19 04:56:58;;;;;;;3.08;2.70;;;;;;;17.99;77.69;100032.78;10331755;28;20883;-61
2021/08/19 05:02:01;;;;;;;4.53;4.13;;;;;;;17.96;78.04;100033.97;10328909;28;20046;-60
2021/08/19 05:07:03;;;;;;;3.35;3.05;;;;;;;17.96;78.22;100033.97;10322923;28;20100;-58
2021/08/19 05:12:06;;;;;;;4.95;3.13;;;;;;;17.95;78.29;100026.06;10315474;28;20162;-60
2021/08/19 05:17:07;;;;;;;4.28;3.92;;;;;;;17.85;79.36;100032.47;10309063;28;20247;-60
2021/08/19 05:22:08;;;;;;;4.20;3.58;;;;;;;17.84;79.31;100046.94;10312980;28;20046;-59
2021/08/19 05:27:10;;;;;;;3.47;3.08;;;;;;;17.90;79.76;100037.38;10315895;28;20069;-59
2021/08/19 05:32:11;;;;;;;3.58;3.10;;;;;;;17.89;79.72;100038.38;10310641;28;20054;-62
2021/08/19 05:37:13;;;;;;;3.47;3.17;;;;;;;17.89;79.99;100043.75;10316155;28;20053;-62
2021/08/19 05:42:14;;;;;;;4.20;3.70;;;;;;;18.06;79.53;100039.16;10327038;28;20112;-62
2021/08/19 05:47:16;;;;;;;4.13;3.25;;;;;;;18.01;79.70;100036.13;10318274;28;20999;-57
2021/08/19 05:52:18;;;;;;;3.95;3.55;;;;;;;17.80;80.15;100034.84;10313997;28;20081;-65
2021/08/19 05:57:19;;;;;;;3.42;2.88;;;;;;;17.78;80.78;100046.84;10315683;28;20508;-59
2021/08/19 06:02:21;;;;;;;3.03;2.65;;;;;;;17.93;80.48;100052.34;10318125;28;20069;-60
2021/08/19 06:07:22;;;;;;;3.50;3.10;;;;;;;17.96;80.31;100060.91;10313764;28;20045;-62
2021/08/19 06:12:24;;;;;;;4.97;3.40;;;;;;;17.92;80.65;100069.50;10312183;28;20077;-61
2021/08/19 06:17:25;;;;;;;5.80;3.22;;;;;;;17.90;80.47;100067.00;10332748;28;20049;-58
2021/08/19 06:22:27;;;;;;;5.78;4.63;;;;;;;17.89;80.69;100062.59;10311050;28;20137;-60
2021/08/19 06:27:28;;;;;;;3.08;2.78;;;;;;;17.98;80.36;100069.63;10311808;28;20507;-61
2021/08/19 06:32:29;;;;;;;5.93;4.65;;;;;;;17.83;81.02;100074.06;10309413;28;20188;-59
2021/08/19 06:37:31;;;;;;;4.35;3.35;;;;;;;17.95;80.51;100074.53;10310156;28;20128;-59
2021/08/19 06:42:32;;;;;;;5.18;3.22;;;;;;;18.08;79.90;100079.38;10312517;28;20549;-59
2021/08/19 06:47:35;;;;;;;5.63;5.22;;;;;;;18.24;79.13;100073.88;10314239;28;20731;-61
2021/08/19 06:52:41;;;;;;;4.63;4.22;;;;;;;18.55;77.74;100071.16;10314921;28;21354;-59
2021/08/19 06:57:42;;;;;;;3.75;3.35;;;;;;;18.57;77.11;100062.88;10320491;28;20045;-61
2021/08/19 07:02:43;;;;;;;3.90;2.63;;;;;;;18.69;76.33;100072.22;10312877;28;20182;-60
2021/08/19 07:07:45;;;;;;;4.10;3.80;;;;;;;18.70;75.82;100060.38;10308126;28;20058;-60
2021/08/19 07:12:46;;;;;;;6.00;3.70;;;;;;;18.83;75.71;100061.66;10317411;28;20161;-59
2021/08/19 07:17:48;;;;;;;3.30;2.92;;;;;;;19.03;74.73;100062.81;10314746;28;20152;-60
2021/08/19 07:22:50;;;;;;;2.63;2.42;;;;;;;18.96;74.28;100059.19;10313611;28;20137;-58
2021/08/19 07:27:52;;;;;;;3.47;2.60;;;;;;;18.96;73.61;100067.28;10318194;28;20046;-57
2021/08/19 07:32:53;;;;;;;3.58;2.42;;;;;;;19.13;73.31;100059.03;10318632;28;20108;-58
2021/08/19 07:37:56;;;;;;;3.30;3.00;;;;;;;19.34;72.07;100067.25;10313244;28;20042;-59
2021/08/19 07:42:58;;;;;;;3.38;2.33;;;;;;;19.53;71.09;100054.19;10312495;28;20523;-59
2021/08/19 07:48:07;;;;;;;3.13;1.80;;;;;;;19.60;69.90;100063.22;10321894;28;20122;-60
2021/08/19 07:53:11;;;;;;;2.85;1.92;;;;;;;19.56;70.38;100056.53;10322777;28;20156;-59
2021/08/19 07:58:13;;;;;;;3.00;1.58;;;;;;;19.70;69.51;100057.56;10318478;28;20541;-60
2021/08/19 08:03:14;;;;;;;2.25;2.05;;;;;;;19.73;69.01;100059.88;10317535;28;20132;-60
2021/08/19 08:08:16;;;;;;;2.72;2.00;;;;;;;19.95;69.15;100066.19;10320335;28;20136;-59
2021/08/19 08:13:17;;;;;;;3.70;1.77;;;;;;;19.89;68.81;100075.91;10323107;28;20170;-60
2021/08/19 08:18:19;;;;;;;2.90;1.40;;;;;;;19.95;67.63;100082.38;10316112;28;20062;-60
2021/08/19 08:23:21;;;;;;;3.00;1.63;;;;;;;20.38;66.22;100081.66;10323045;28;20073;-60
2021/08/19 08:28:26;;;;;;;2.95;2.20;;;;;;;20.62;65.67;100088.53;10321816;28;20273;-59
2021/08/19 08:33:28;;;;;;;4.38;1.75;;;;;;;20.66;64.94;100089.88;10324550;28;20053;-61
2021/08/19 08:38:31;;;;;;;2.03;1.83;;;;;;;20.95;64.21;100098.84;10321698;28;20129;-59
2021/08/19 08:43:34;;;;;;;3.55;2.45;;;;;;;21.08;64.04;100088.13;10323118;28;20058;-61
2021/08/19 08:48:36;;;;;;;2.08;1.77;;;;;;;20.98;63.84;100098.47;10318425;28;20109;-59
2021/08/19 08:53:41;;;;;;;2.05;1.20;;;;;;;21.06;63.91;100078.53;10315933;28;20107;-59
2021/08/19 08:58:57;;;;;;;4.82;4.35;;;;;;;21.22;63.49;100089.06;10317180;28;20053;-60
2021/08/19 09:03:58;;;;;;;1.90;1.48;;;;;;;21.63;63.33;100087.47;10327510;28;20128;-60
2021/08/19 09:09:22;;;;;;;2.33;1.20;;;;;;;21.74;62.41;100081.50;10318570;28;20103;-60
2021/08/19 09:14:27;;;;;;;2.15;1.63;;;;;;;21.85;61.75;100089.03;10319316;28;20050;-60
2021/08/19 09:19:31;;;;;;;3.83;3.63;;;;;;;22.29;60.58;100088.78;10314714;28;20073;-58
2021/08/19 09:24:34;;;;;;;1.60;1.50;;;;;;;22.50;59.29;100088.63;10317720;28;20054;-60
2021/08/19 09:29:40;;;;;;;6.30;1.73;;;;;;;22.82;59.66;100088.91;10314510;28;20054;-58
2021/08/19 09:34:45;;;;;;;3.50;3.20;;;;;;;23.04;58.29;100083.25;10321427;28;20054;-60
2021/08/19 09:39:55;;;;;;;2.03;1.83;;;;;;;23.10;57.99;100072.44;10312430;28;20141;-61
2021/08/19 09:44:56;;;;;;;2.03;1.63;;;;;;;22.62;59.04;100067.16;10320237;28;20128;-59
2021/08/19 09:50:28;;;;;;;1.33;1.17;;;;;;;22.58;59.22;100072.19;10316887;28;20165;-59
2021/08/19 09:55:31;;;;;;;3.22;2.70;;;;;;;22.68;57.42;100062.81;10309691;28;20567;-62
2021/08/19 10:00:40;;;;;;;3.10;1.52;;;;;;;23.11;56.82;100075.97;10319798;28;20529;-60
2021/08/19 10:05:43;;;;;;;3.30;1.15;;;;;;;23.78;55.46;100075.81;10310917;28;20048;-59
2021/08/19 10:10:44;;;;;;;2.03;1.40;;;;;;;24.17;54.74;100065.88;10314612;28;20144;-59
2021/08/19 10:15:48;;;;;;;3.67;3.38;;;;;;;24.30;54.01;100063.03;10316600;28;20553;-59
2021/08/19 10:21:13;;;;;;;5.13;4.82;;;;;;;24.49;53.57;100060.44;10318272;28;20159;-61
2021/08/19 10:26:33;;;;;;;2.43;1.27;;;;;;;24.50;52.51;100053.91;10313319;28;20046;-60
2021/08/19 10:31:41;;;;;;;2.97;2.70;;;;;;;24.95;50.68;100056.53;10314292;28;20662;-59
2021/08/19 10:36:45;;;;;;;2.35;1.38;;;;;;;24.58;49.75;100052.84;10314600;28;20056;-60
2021/08/19 10:41:47;;;;;;;1.98;0.80;;;;;;;24.20;50.97;100062.72;10319636;28;20134;-62
2021/08/19 10:47:05;;;;;;;1.67;1.38;;;;;;;23.87;52.46;100047.41;10311856;28;20057;-61
2021/08/19 10:52:07;;;;;;;3.08;1.60;;;;;;;24.25;52.21;100038.41;10316061;28;20115;-59
2021/08/19 10:57:21;;;;;;;2.70;2.47;;;;;;;24.42;50.38;100033.25;10313096;28;20069;-61
2021/08/19 11:02:38;;;;;;;4.07;3.78;;;;;;;24.74;51.04;100036.00;10312014;28;20535;-60
2021/08/19 11:07:49;;;;;;;5.13;3.40;;;;;;;24.24;52.52;100042.16;10313682;28;20052;-59
2021/08/19 11:12:50;;;;;;;3.10;1.95;;;;;;;24.43;52.01;100032.22;10312354;28;20053;-61
2021/08/19 11:17:54;;;;;;;4.50;2.15;;;;;;;24.16;52.58;100037.81;10313116;28;20070;-60
2021/08/19 11:23:09;;;;;;;3.72;2.00;;;;;;;23.82;52.94;100039.00;10313500;28;20089;-59
2021/08/19 11:28:13;;;;;;;3.05;1.92;;;;;;;23.50;54.44;100028.06;10309460;28;20054;-60
2021/08/19 11:33:17;;;;;;;2.25;2.05;;;;;;;23.33;54.51;100035.00;10314249;28;20068;-60
2021/08/19 11:38:23;;;;;;;2.88;2.40;;;;;;;23.28;55.75;100028.34;10316406;28;20755;-58
2021/08/19 11:43:29;;;;;;;3.05;2.67;;;;;;;23.82;55.29;100033.56;10313594;28;20809;-60
2021/08/19 11:48:32;;;;;;;2.72;2.53;;;;;;;24.55;52.56;100037.78;10312040;28;20184;-60
2021/08/19 11:53:33;;;;;;;2.67;2.47;;;;;;;24.22;51.89;100038.03;10312734;28;20108;-61
2021/08/19 11:58:34;;;;;;;2.90;2.40;;;;;;;24.67;51.52;100036.03;10312606;28;20057;-59
2021/08/19 12:03:36;;;;;;;4.97;4.47;;;;;;;24.33;52.35;100032.69;10314868;28;20137;-59
2021/08/19 12:08:45;;;;;;;5.03;4.72;;;;;;;24.31;53.37;100037.53;10314148;28;20077;-60
2021/08/19 12:13:50;;;;;;;3.55;3.25;;;;;;;23.83;53.84;100046.94;10314608;28;20061;-60
2021/08/19 12:19:17;;;;;;;3.47;3.10;;;;;;;23.62;54.76;100044.53;10320428;28;20080;-59
2021/08/19 12:24:20;;;;;;;3.30;2.90;;;;;;;23.18;56.19;100044.25;10320811;28;20115;-60
2021/08/19 12:29:21;;;;;;;5.00;4.70;;;;;;;23.02;57.29;100047.38;10310173;28;20062;-59
2021/08/19 12:34:22;;;;;;;3.55;2.40;;;;;;;22.79;58.41;100054.06;10311071;28;20141;-61
2021/08/19 12:39:26;;;;;;;2.72;2.53;;;;;;;22.80;58.64;100057.59;10319111;28;20108;-60
2021/08/19 12:44:30;;;;;;;2.17;1.98;;;;;;;23.01;57.83;100048.41;10320690;28;20551;-61
2021/08/19 12:49:31;;;;;;;2.63;2.42;;;;;;;23.08;57.72;100049.22;10316154;28;20096;-59
2021/08/19 12:54:33;;;;;;;3.67;3.38;;;;;;;23.00;58.26;100042.16;10315495;28;20179;-58
2021/08/19 12:59:34;;;;;;;3.90;3.55;;;;;;;23.10;58.56;100031.72;10321251;28;20125;-61
2021/08/19 13:04:36;;;;;;;3.25;2.92;;;;;;;23.22;57.88;100044.63;10317560;28;20212;-59
2021/08/19 13:09:37;;;;;;;2.90;2.45;;;;;;;23.36;57.42;100040.00;10319200;28;20073;-60
2021/08/19 13:14:38;;;;;;;3.55;2.90;;;;;;;23.73;56.70;100024.84;10318577;28;20160;-59
2021/08/19 13:19:40;;;;;;;2.92;2.72;;;;;;;24.00;55.39;100031.03;10317960;28;20141;-59
2021/08/19 13:24:43;;;;;;;2.35;1.85;;;;;;;24.21;54.38;100037.16;10322503;28;20073;-60
2021/08/19 13:29:45;;;;;;;;;;;;;;;23.92;55.14;100031.25;10315270;28;20133;-60
2021/08/19 13:34:47;;;;;;;1.63;1.52;;;;;;;23.50;56.32;100019.09;10314992;28;20020;-59
2021/08/19 13:39:48;;;;;;;1.63;1.52;;;;;;;23.36;57.02;100012.84;10316221;28;20135;-59
2021/08/19 13:44:50;;;;;;;2.70;1.97;;;;;;;23.16;57.90;100012.91;10317021;28;20515;-60
2021/08/19 13:49:51;;;;;;;2.92;2.22;;;;;;;22.92;59.25;100007.91;10318459;28;22543;-59
2021/08/19 13:54:53;;;;;;;3.63;3.33;;;;;;;22.63;60.50;100003.75;10320037;28;20210;-58
2021/08/19 13:59:54;;;;;;;3.05;2.80;;;;;;;22.60;61.20;100012.31;10320288;28;20070;-60
2021/08/19 14:04:55;;;;;;;3.63;3.33;;;;;;;22.46;59.88;100014.19;10332193;28;20570;-60
2021/08/19 14:09:57;;;;;;;2.28;1.63;;;;;;;22.26;60.59;100014.09;10319117;28;20136;-59
2021/08/19 14:14:59;;;;;;;3.60;2.58;;;;;;;22.17;60.97;100015.34;10325350;28;20053;-59
2021/08/19 14:20:00;;;;;;;4.68;4.30;;;;;;;22.15;61.20;100007.44;10320207;28;20182;-59
2021/08/19 14:25:03;;;;;;;3.17;2.20;;;;;;;22.12;60.58;100012.44;10317507;28;20149;-60
2021/08/19 14:30:06;;;;;;;3.07;2.40;;;;;;;22.22;60.23;100011.00;10318186;28;20050;-60
2021/08/19 14:35:08;;;;;;;2.72;2.53;;;;;;;22.20;59.93;100007.66;10316194;28;20462;-61
2021/08/19 14:40:10;;;;;;;2.85;2.65;;;;;;;22.28;58.38;100005.78;10313211;28;20128;-59
2021/08/19 14:45:12;;;;;;;2.60;2.08;;;;;;;22.28;57.62;100005.78;10312272;28;20144;-60
2021/08/19 14:50:13;;;;;;;3.67;3.35;;;;;;;22.20;58.10;100007.66;10321754;28;20195;-59
2021/08/19 14:55:14;;;;;;;2.97;2.78;;;;;;;22.32;58.10;100007.88;10316964;28;20062;-61
2021/08/19 15:00:16;;;;;;;3.85;3.65;;;;;;;22.33;57.84;100009.56;10319797;28;20504;-61
2021/08/19 15:05:18;;;;;;;3.45;3.25;;;;;;;22.36;57.94;100017.28;10314221;28;20125;-59
2021/08/19 15:10:20;;;;;;;2.60;2.50;;;;;;;22.35;56.14;100012.06;10307852;28;20490;-60
2021/08/19 15:15:21;;;;;;;2.63;1.80;;;;;;;22.31;56.56;100016.19;10318515;28;20144;-60
2021/08/19 15:20:22;;;;;;;1.38;1.27;;;;;;;22.19;55.90;100008.69;10314521;28;20077;-60
2021/08/19 15:25:24;;;;;;;3.38;3.17;;;;;;;22.04;56.71;100008.88;10312360;28;20170;-62
2021/08/19 15:30:26;;;;;;;2.13;1.70;;;;;;;21.85;56.75;100007.75;10313985;28;20087;-59
2021/08/19 15:35:27;;;;;;;2.95;1.60;;;;;;;21.89;58.19;100014.44;10311170;28;20108;-57
2021/08/19 15:40:30;;;;;;;3.22;1.70;;;;;;;22.00;57.75;100009.47;10317042;28;20112;-60
2021/08/19 15:45:32;;;;;;;1.63;1.30;;;;;;;22.02;57.36;99999.25;10307761;28;20046;-59
2021/08/19 15:50:36;;;;;;;2.45;1.58;;;;;;;22.16;57.29;99998.25;10311436;28;20219;-58
2021/08/19 15:55:37;;;;;;;1.73;1.38;;;;;;;22.31;55.85;100002.66;10316877;28;20140;-60
2021/08/19 16:00:39;;;;;;;2.30;2.10;;;;;;;22.47;56.29;99999.56;10315501;28;20208;-60
2021/08/19 16:05:41;;;;;;;2.20;2.00;;;;;;;22.56;56.25;99992.91;10320910;28;20053;-59
2021/08/19 16:10:42;;;;;;;2.67;2.55;;;;;;;22.57;55.65;99993.75;10319432;28;20706;-61
2021/08/19 16:15:44;;;;;;;1.70;1.60;;;;;;;22.53;55.77;100003.31;10326443;28;20124;-58
2021/08/19 16:20:45;;;;;;;1.90;1.40;;;;;;;22.56;55.61;100006.47;10320418;28;20069;-60
2021/08/19 16:25:47;;;;;;;1.40;1.30;;;;;;;22.51;55.30;99987.25;10321939;28;20149;-59
2021/08/19 16:30:48;;;;;;;1.63;1.50;;;;;;;22.51;55.66;99992.69;10324428;28;20160;-58
2021/08/19 16:35:50;;;;;;;1.80;1.50;;;;;;;22.64;54.52;99996.44;10324354;28;20050;-60
2021/08/19 16:40:51;;;;;;;1.70;1.50;;;;;;;22.63;54.70;99994.78;10321857;28;20180;-60
2021/08/19 16:45:53;;;;;;;3.65;2.03;;;;;;;22.48;54.48;99995.00;10322411;28;20085;-61
2021/08/19 16:50:54;;;;;;;3.20;2.08;;;;;;;22.46;54.56;99992.50;10324228;28;20081;-61
2021/08/19 16:55:55;;;;;;;2.60;1.90;;;;;;;22.39;54.06;99988.94;10319136;28;20607;-59
2021/08/19 17:00:57;;;;;;;2.10;1.70;;;;;;;22.31;54.61;99994.50;10320860;28;20135;-59
2021/08/19 17:05:58;;;;;;;2.85;2.65;;;;;;;22.17;54.51;99999.94;10320357;28;20230;-62
2021/08/19 17:11:00;;;;;;;2.15;1.65;;;;;;;22.03;54.13;100001.75;10320228;28;20119;-60
2021/08/19 17:16:02;;;;;;;3.53;2.55;;;;;;;21.97;54.39;99999.06;10315438;28;20210;-60
2021/08/19 17:21:04;;;;;;;2.22;2.03;;;;;;;21.96;54.67;100002.78;10318796;28;20371;-61
2021/08/19 17:26:05;;;;;;;2.05;1.60;;;;;;;21.96;54.86;100003.63;10320013;28;20245;-60
2021/08/19 17:31:06;;;;;;;11.35;7.38;;;;;;;21.95;55.13;100001.13;10313186;28;20069;-61
2021/08/19 17:36:08;;;;;;;4.05;2.97;;;;;;;21.92;55.59;100001.53;10318040;28;20054;-61
2021/08/19 17:41:10;;;;;;;2.38;2.17;;;;;;;21.82;55.74;100008.16;10316248;28;20050;-62
2021/08/19 17:46:11;;;;;;;3.17;2.88;;;;;;;21.77;56.09;100002.53;10317903;28;20073;-62
2021/08/19 17:51:13;;;;;;;2.85;2.17;;;;;;;21.78;56.27;100012.31;10309646;28;20496;-62
2021/08/19 17:56:15;;;;;;;4.32;4.03;;;;;;;21.75;56.64;100012.72;10299005;28;20142;-62
2021/08/19 18:01:20;;;;;;;2.60;2.40;;;;;;;21.58;56.90;100011.44;10301197;28;20136;-60
2021/08/19 18:06:22;;;;;;;2.85;2.42;;;;;;;21.46;57.59;100014.66;10304092;28;20081;-62
2021/08/19 18:11:24;;;;;;;2.30;2.10;;;;;;;21.44;58.01;100005.91;10308862;28;20176;-60
2021/08/19 18:16:25;;;;;;;4.68;3.40;;;;;;;21.44;58.97;100011.31;10315357;28;20057;-61
2021/08/19 18:21:27;;;;;;;3.80;3.50;;;;;;;21.28;60.22;100012.47;10316694;28;20705;-60
2021/08/19 18:26:29;;;;;;;4.40;4.10;;;;;;;21.32;60.80;100008.34;10304441;28;20852;-60
2021/08/19 18:31:30;;;;;;;2.90;2.67;;;;;;;21.26;61.61;100019.13;10310959;28;20637;-61
2021/08/19 18:36:32;;;;;;;4.90;4.43;;;;;;;21.18;62.08;100025.53;10314419;28;20187;-60
2021/08/19 18:41:34;;;;;;;4.70;3.75;;;;;;;21.14;62.17;100025.09;10310728;28;20153;-62
2021/08/19 18:46:36;;;;;;;4.22;3.92;;;;;;;21.07;62.26;100032.34;10309215;28;20164;-60
2021/08/19 18:51:37;;;;;;;4.93;4.18;;;;;;;21.12;62.67;100029.88;10303757;28;20057;-54
2021/08/19 18:56:39;;;;;;;3.88;3.58;;;;;;;21.18;62.38;100030.94;10307432;28;20092;-54
2021/08/19 19:01:40;;;;;;;3.58;3.28;;;;;;;21.15;62.27;100039.47;10313720;28;20077;-53
2021/08/19 19:06:42;;;;;;;6.13;3.60;;;;;;;21.04;62.97;100040.03;10307888;28;20084;-53
2021/08/19 19:11:45;;;;;;;5.05;3.15;;;;;;;21.07;62.81;100042.34;10309182;28;20050;-53
2021/08/19 19:16:47;;;;;;;4.00;3.60;;;;;;;21.13;62.77;100055.91;10309130;28;20154;-54
2021/08/19 19:21:48;;;;;;;4.43;3.63;;;;;;;21.06;63.18;100049.59;10312174;28;20053;-55
2021/08/19 19:26:50;;;;;;;4.70;3.80;;;;;;;20.98;63.32;100060.59;10309658;28;20101;-53
2021/08/19 19:31:51;;;;;;;4.07;3.70;;;;;;;20.83;64.32;100064.19;10328430;28;20144;-55
2021/08/19 19:36:53;;;;;;;4.15;3.75;;;;;;;20.82;64.81;100077.91;10310588;28;20495;-53
2021/08/19 19:41:54;;;;;;;4.10;3.42;;;;;;;20.85;64.36;100077.53;10312036;28;20579;-54
2021/08/19 19:46:56;;;;;;;4.22;3.83;;;;;;;20.87;64.56;100080.03;10327131;28;20135;-59
2021/08/19 19:51:57;;;;;;;5.10;3.88;;;;;;;20.82;64.44;100084.19;10327131;28;20285;-61
2021/08/19 19:56:58;;;;;;;3.92;3.60;;;;;;;20.76;64.47;100079.56;10323376;28;20093;-59
2021/08/19 20:02:00;;;;;;;4.32;3.92;;;;;;;20.78;64.51;100084.78;10320957;28;20054;-59
2021/08/19 20:07:02;;;;;;;5.80;3.70;;;;;;;20.75;64.38;100088.69;10335456;28;20049;-59
2021/08/19 20:12:04;;;;;;;3.28;2.97;;;;;;;20.81;64.55;100087.09;10324451;28;20106;-61
2021/08/19 20:17:05;;;;;;;4.10;3.60;;;;;;;20.75;64.63;100079.75;10325066;28;20081;-60
2021/08/19 20:22:09;;;;;;;4.82;3.63;;;;;;;20.85;64.18;100091.06;10331192;28;20050;-60
2021/08/19 20:27:10;;;;;;;6.80;3.78;;;;;;;20.79;64.19;100089.13;10324550;28;20100;-60
2021/08/19 20:32:12;;;;;;;5.10;4.07;;;;;;;20.87;64.45;100093.56;10323179;28;20073;-59
2021/08/19 20:37:13;;;;;;;4.78;4.18;;;;;;;20.86;64.18;100102.72;10338434;28;20553;-60
2021/08/19 20:42:14;;;;;;;3.97;3.05;;;;;;;20.72;64.72;100088.25;10323282;28;20113;-59
2021/08/19 20:47:16;;;;;;;4.55;3.78;;;;;;;20.75;64.64;100091.41;10323658;28;20104;-60
2021/08/19 20:52:17;;;;;;;4.60;3.70;;;;;;;20.74;64.61;100094.31;10337986;28;20538;-61
2021/08/19 20:57:19;;;;;;;3.85;3.55;;;;;;;20.76;64.69;100094.94;10332467;28;20066;-60
2021/08/19 21:02:20;;;;;;;3.60;3.30;;;;;;;20.82;65.05;100095.00;10335738;28;20088;-59
2021/08/19 21:07:22;;;;;;;5.03;3.80;;;;;;;20.81;64.91;100104.16;10336109;28;20053;-60
2021/08/19 21:12:23;;;;;;;4.38;3.58;;;;;;;20.79;64.99;100108.94;10328207;28;20186;-59
2021/08/19 21:17:25;;;;;;;5.43;3.03;;;;;;;20.83;65.31;100102.06;10334604;28;20050;-60
2021/08/19 21:22:26;;;;;;;3.85;3.42;;;;;;;20.73;65.26;100107.00;10333480;28;20049;-61
2021/08/19 21:27:28;;;;;;;3.83;3.42;;;;;;;20.71;65.28;100103.63;10333616;28;20108;-59
2021/08/19 21:32:30;;;;;;;5.10;3.25;;;;;;;20.74;65.58;100108.66;10330571;28;20049;-59
2021/08/19 21:37:32;;;;;;;4.50;3.88;;;;;;;20.71;65.32;100108.22;10333898;28;20090;-61
2021/08/19 21:42:34;;;;;;;3.67;2.80;;;;;;;20.73;66.16;100112.41;10332448;28;20440;-62
2021/08/19 21:47:35;;;;;;;5.43;3.17;;;;;;;20.72;65.49;100105.31;10328969;28;20068;-61
2021/08/19 21:52:38;;;;;;;3.50;3.20;;;;;;;20.61;65.99;100109.34;10337783;28;20115;-60
2021/08/19 21:57:42;;;;;;;3.70;3.35;;;;;;;20.60;66.40;100101.44;10329311;28;20065;-60
2021/08/19 22:02:43;;;;;;;;;;;;;;;20.70;66.68;100107.34;10323955;28;20104;-62
2021/08/19 22:07:45;;;;;;;3.78;3.40;;;;;;;20.68;66.02;100108.59;10342171;28;19921;-62
2021/08/19 22:12:47;;;;;;;3.20;2.88;;;;;;;20.69;66.17;100115.66;10328418;28;20046;-61
2021/08/19 22:17:49;;;;;;;3.60;3.00;;;;;;;20.58;65.60;100103.47;10326172;28;20049;-60
2021/08/19 22:22:50;;;;;;;4.28;2.90;;;;;;;20.58;65.83;100106.16;10328682;28;20069;-59
2021/08/19 22:27:53;;;;;;;3.92;3.17;;;;;;;20.60;65.83;100112.25;10330330;28;21393;-59
2021/08/19 22:32:54;;;;;;;3.22;2.78;;;;;;;20.58;66.45;100112.44;10338663;28;20042;-61
2021/08/19 22:37:56;;;;;;;3.47;3.17;;;;;;;20.62;66.46;100113.69;10330536;28;20046;-59
2021/08/19 22:42:57;;;;;;;4.88;3.13;;;;;;;20.64;66.27;100113.50;10328710;28;20096;-61
2021/08/19 22:47:59;;;;;;;3.60;2.90;;;;;;;20.66;66.12;100116.91;10330250;28;20490;-60
2021/08/19 22:53:01;;;;;;;4.28;3.42;;;;;;;20.69;66.05;100111.09;10332175;28;20108;-59
2021/08/19 22:58:06;;;;;;;3.25;2.95;;;;;;;20.66;65.90;100117.72;10326428;28;23843;-61
2021/08/19 23:03:07;;;;;;;4.25;3.47;;;;;;;20.61;65.46;100117.47;10329007;28;20094;-60
2021/08/19 23:08:09;;;;;;;4.35;3.67;;;;;;;20.53;66.46;100116.75;10330422;28;20185;-62